sensor_id;sensor_type;location;lat;lon;timestamp;P1;durP1;ratioP1;P2;durP2;ratioP2
9398;SDS011;4739;49.334;8.792;2023-03-01T00:01:35;10.33;;;8.40;;
9398;SDS011;4739;49.334;8.792;2023-03-01T00:04:00;10.70;;;8.70;;
9398;SDS011;4739;49.334;8.792;2023-03-01T00:06:26;10.03;;;8.03;;
9398;SDS011;4739;49.334;8.792;2023-03-01T00:08:52;16.17;;;11.40;;
9398;SDS011;4739;49.334;8.792;2023-03-01T00:11:19;19.97;;;13.27;;
9398;SDS011;4739;49.334;8.792;2023-03-01T00:13:46;16.40;;;11.93;;
9398;SDS011;4739;49.334;8.792;2023-03-01T00:16:17;15.60;;;11.53;;
9398;SDS011;4739;49.334;8.792;2023-03-01T00:18:45;11.87;;;8.87;;
9398;SDS011;4739;49.334;8.792;2023-03-01T00:21:12;17.57;;;12.17;;
9398;SDS011;4739;49.334;8.792;2023-03-01T00:23:38;15.83;;;12.00;;
9398;SDS011;4739;49.334;8.792;2023-03-01T00:26:09;13.83;;;10.60;;
9398;SDS011;4739;49.334;8.792;2023-03-01T00:28:38;14.87;;;11.97;;
9398;SDS011;4739;49.334;8.792;2023-03-01T00:31:04;14.00;;;10.77;;
9398;SDS011;4739;49.334;8.792;2023-03-01T00:33:31;14.07;;;9.93;;
9398;SDS011;4739;49.334;8.792;2023-03-01T00:35:59;12.33;;;9.23;;
9398;SDS011;4739;49.334;8.792;2023-03-01T00:38:25;11.73;;;8.80;;
9398;SDS011;4739;49.334;8.792;2023-03-01T00:40:51;9.97;;;8.97;;
9398;SDS011;4739;49.334;8.792;2023-03-01T00:43:16;10.93;;;8.47;;
9398;SDS011;4739;49.334;8.792;2023-03-01T00:45:42;11.10;;;9.03;;
9398;SDS011;4739;49.334;8.792;2023-03-01T00:48:08;10.67;;;8.30;;
9398;SDS011;4739;49.334;8.792;2023-03-01T00:50:34;10.33;;;8.77;;
9398;SDS011;4739;49.334;8.792;2023-03-01T00:52:59;11.80;;;8.97;;
9398;SDS011;4739;49.334;8.792;2023-03-01T00:55:26;11.23;;;9.07;;
9398;SDS011;4739;49.334;8.792;2023-03-01T00:57:51;12.40;;;9.83;;
9398;SDS011;4739;49.334;8.792;2023-03-01T01:00:17;11.20;;;9.33;;
9398;SDS011;4739;49.334;8.792;2023-03-01T01:02:44;12.07;;;9.40;;
9398;SDS011;4739;49.334;8.792;2023-03-01T01:05:10;12.27;;;9.60;;
9398;SDS011;4739;49.334;8.792;2023-03-01T01:07:36;13.73;;;9.97;;
9398;SDS011;4739;49.334;8.792;2023-03-01T01:10:02;10.83;;;9.00;;
9398;SDS011;4739;49.334;8.792;2023-03-01T01:12:28;11.63;;;9.60;;
9398;SDS011;4739;49.334;8.792;2023-03-01T01:14:53;12.87;;;9.33;;
9398;SDS011;4739;49.334;8.792;2023-03-01T01:17:19;10.53;;;8.80;;
9398;SDS011;4739;49.334;8.792;2023-03-01T01:19:45;12.53;;;9.23;;
9398;SDS011;4739;49.334;8.792;2023-03-01T01:22:10;12.43;;;9.30;;
9398;SDS011;4739;49.334;8.792;2023-03-01T01:24:36;12.17;;;9.83;;
9398;SDS011;4739;49.334;8.792;2023-03-01T01:27:01;12.93;;;9.47;;
9398;SDS011;4739;49.334;8.792;2023-03-01T01:29:27;13.37;;;9.83;;
9398;SDS011;4739;49.334;8.792;2023-03-01T01:31:52;13.00;;;9.63;;
9398;SDS011;4739;49.334;8.792;2023-03-01T01:34:19;12.97;;;9.63;;
9398;SDS011;4739;49.334;8.792;2023-03-01T01:36:49;12.50;;;9.73;;
9398;SDS011;4739;49.334;8.792;2023-03-01T01:39:16;14.77;;;9.57;;
9398;SDS011;4739;49.334;8.792;2023-03-01T01:41:41;13.57;;;10.03;;
9398;SDS011;4739;49.334;8.792;2023-03-01T01:44:23;13.63;;;10.07;;
9398;SDS011;4739;49.334;8.792;2023-03-01T01:47:35;13.97;;;10.50;;
9398;SDS011;4739;49.334;8.792;2023-03-01T01:49:48;11.67;;;10.40;;
9398;SDS011;4739;49.334;8.792;2023-03-01T01:52:17;12.20;;;9.60;;
9398;SDS011;4739;49.334;8.792;2023-03-01T01:54:49;12.50;;;10.23;;
9398;SDS011;4739;49.334;8.792;2023-03-01T01:57:19;12.20;;;10.03;;
9398;SDS011;4739;49.334;8.792;2023-03-01T01:59:53;13.40;;;10.53;;
9398;SDS011;4739;49.334;8.792;2023-03-01T02:02:23;14.27;;;10.47;;
9398;SDS011;4739;49.334;8.792;2023-03-01T02:04:49;15.13;;;11.03;;
9398;SDS011;4739;49.334;8.792;2023-03-01T02:07:21;16.50;;;11.47;;
9398;SDS011;4739;49.334;8.792;2023-03-01T02:09:49;14.97;;;10.80;;
9398;SDS011;4739;49.334;8.792;2023-03-01T02:12:18;12.17;;;10.00;;
9398;SDS011;4739;49.334;8.792;2023-03-01T02:14:45;11.97;;;10.20;;
9398;SDS011;4739;49.334;8.792;2023-03-01T02:17:11;13.17;;;10.27;;
9398;SDS011;4739;49.334;8.792;2023-03-01T02:19:45;14.40;;;10.67;;
9398;SDS011;4739;49.334;8.792;2023-03-01T02:22:22;12.13;;;9.70;;
9398;SDS011;4739;49.334;8.792;2023-03-01T02:27:39;12.40;;;10.23;;
9398;SDS011;4739;49.334;8.792;2023-03-01T02:30:06;12.20;;;10.20;;
9398;SDS011;4739;49.334;8.792;2023-03-01T02:32:33;13.97;;;10.17;;
9398;SDS011;4739;49.334;8.792;2023-03-01T02:34:59;15.17;;;10.90;;
9398;SDS011;4739;49.334;8.792;2023-03-01T02:37:25;15.00;;;11.10;;
9398;SDS011;4739;49.334;8.792;2023-03-01T02:39:54;13.73;;;11.20;;
9398;SDS011;4739;49.334;8.792;2023-03-01T02:42:26;14.20;;;11.03;;
9398;SDS011;4739;49.334;8.792;2023-03-01T02:44:55;12.57;;;10.47;;
9398;SDS011;4739;49.334;8.792;2023-03-01T02:47:21;14.30;;;11.23;;
9398;SDS011;4739;49.334;8.792;2023-03-01T02:49:47;14.03;;;10.73;;
9398;SDS011;4739;49.334;8.792;2023-03-01T02:57:27;11.73;;;9.67;;
9398;SDS011;4739;49.334;8.792;2023-03-01T02:59:55;14.07;;;10.00;;
9398;SDS011;4739;49.334;8.792;2023-03-01T03:02:25;12.00;;;10.00;;
9398;SDS011;4739;49.334;8.792;2023-03-01T03:05:11;10.83;;;9.10;;
9398;SDS011;4739;49.334;8.792;2023-03-01T03:07:39;14.87;;;9.83;;
9398;SDS011;4739;49.334;8.792;2023-03-01T03:10:06;13.30;;;10.17;;
9398;SDS011;4739;49.334;8.792;2023-03-01T03:12:33;12.07;;;9.50;;
9398;SDS011;4739;49.334;8.792;2023-03-01T03:14:59;13.30;;;9.63;;
9398;SDS011;4739;49.334;8.792;2023-03-01T03:17:25;13.63;;;9.97;;
9398;SDS011;4739;49.334;8.792;2023-03-01T03:19:51;12.07;;;9.80;;
9398;SDS011;4739;49.334;8.792;2023-03-01T03:22:17;13.30;;;9.63;;
9398;SDS011;4739;49.334;8.792;2023-03-01T03:24:42;16.17;;;10.13;;
9398;SDS011;4739;49.334;8.792;2023-03-01T03:27:08;13.43;;;9.77;;
9398;SDS011;4739;49.334;8.792;2023-03-01T03:29:34;13.10;;;10.77;;
9398;SDS011;4739;49.334;8.792;2023-03-01T03:32:00;13.53;;;9.87;;
9398;SDS011;4739;49.334;8.792;2023-03-01T03:34:26;13.57;;;10.63;;
9398;SDS011;4739;49.334;8.792;2023-03-01T03:36:55;13.37;;;10.33;;
9398;SDS011;4739;49.334;8.792;2023-03-01T03:39:24;14.53;;;10.93;;
9398;SDS011;4739;49.334;8.792;2023-03-01T03:41:50;13.63;;;10.40;;
9398;SDS011;4739;49.334;8.792;2023-03-01T03:44:16;13.20;;;10.07;;
9398;SDS011;4739;49.334;8.792;2023-03-01T03:46:42;13.47;;;9.93;;
9398;SDS011;4739;49.334;8.792;2023-03-01T03:49:08;14.67;;;10.03;;
9398;SDS011;4739;49.334;8.792;2023-03-01T03:54:00;15.90;;;11.77;;
9398;SDS011;4739;49.334;8.792;2023-03-01T03:56:26;15.17;;;12.47;;
9398;SDS011;4739;49.334;8.792;2023-03-01T03:58:52;15.20;;;11.57;;
9398;SDS011;4739;49.334;8.792;2023-03-01T04:01:18;16.07;;;11.80;;
9398;SDS011;4739;49.334;8.792;2023-03-01T04:03:44;14.37;;;11.37;;
9398;SDS011;4739;49.334;8.792;2023-03-01T04:06:11;16.43;;;12.73;;
9398;SDS011;4739;49.334;8.792;2023-03-01T04:08:37;16.53;;;12.37;;
9398;SDS011;4739;49.334;8.792;2023-03-01T04:11:04;14.97;;;11.17;;
9398;SDS011;4739;49.334;8.792;2023-03-01T04:13:49;14.23;;;11.57;;
9398;SDS011;4739;49.334;8.792;2023-03-01T04:16:15;14.73;;;11.73;;
9398;SDS011;4739;49.334;8.792;2023-03-01T04:18:42;14.63;;;11.83;;
9398;SDS011;4739;49.334;8.792;2023-03-01T04:21:08;15.87;;;11.93;;
9398;SDS011;4739;49.334;8.792;2023-03-01T04:23:35;14.97;;;11.20;;
9398;SDS011;4739;49.334;8.792;2023-03-01T04:26:01;16.23;;;11.63;;
9398;SDS011;4739;49.334;8.792;2023-03-01T04:31:01;16.87;;;12.00;;
9398;SDS011;4739;49.334;8.792;2023-03-01T04:33:37;14.97;;;11.33;;
9398;SDS011;4739;49.334;8.792;2023-03-01T04:36:04;16.03;;;12.90;;
9398;SDS011;4739;49.334;8.792;2023-03-01T04:38:31;17.10;;;13.03;;
9398;SDS011;4739;49.334;8.792;2023-03-01T04:40:58;17.10;;;12.20;;
9398;SDS011;4739;49.334;8.792;2023-03-01T04:43:24;15.20;;;11.80;;
9398;SDS011;4739;49.334;8.792;2023-03-01T04:45:50;18.33;;;13.40;;
9398;SDS011;4739;49.334;8.792;2023-03-01T04:48:16;15.73;;;12.23;;
9398;SDS011;4739;49.334;8.792;2023-03-01T04:50:42;16.93;;;13.43;;
9398;SDS011;4739;49.334;8.792;2023-03-01T04:53:08;16.93;;;13.50;;
9398;SDS011;4739;49.334;8.792;2023-03-01T04:55:34;16.00;;;12.97;;
9398;SDS011;4739;49.334;8.792;2023-03-01T04:58:00;15.03;;;12.23;;
9398;SDS011;4739;49.334;8.792;2023-03-01T05:00:26;17.00;;;12.27;;
9398;SDS011;4739;49.334;8.792;2023-03-01T05:02:53;15.47;;;12.63;;
9398;SDS011;4739;49.334;8.792;2023-03-01T05:05:20;16.03;;;11.90;;
9398;SDS011;4739;49.334;8.792;2023-03-01T05:07:46;17.90;;;12.30;;
9398;SDS011;4739;49.334;8.792;2023-03-01T05:10:12;15.27;;;12.40;;
9398;SDS011;4739;49.334;8.792;2023-03-01T05:12:38;17.07;;;12.77;;
9398;SDS011;4739;49.334;8.792;2023-03-01T05:15:05;18.30;;;13.37;;
9398;SDS011;4739;49.334;8.792;2023-03-01T05:17:32;16.07;;;12.07;;
9398;SDS011;4739;49.334;8.792;2023-03-01T05:19:57;15.07;;;11.60;;
9398;SDS011;4739;49.334;8.792;2023-03-01T05:22:24;17.00;;;12.33;;
9398;SDS011;4739;49.334;8.792;2023-03-01T05:24:50;18.03;;;13.70;;
9398;SDS011;4739;49.334;8.792;2023-03-01T05:27:17;17.03;;;12.73;;
9398;SDS011;4739;49.334;8.792;2023-03-01T05:29:43;16.60;;;12.27;;
9398;SDS011;4739;49.334;8.792;2023-03-01T05:32:09;17.83;;;12.77;;
9398;SDS011;4739;49.334;8.792;2023-03-01T05:34:40;16.90;;;12.40;;
9398;SDS011;4739;49.334;8.792;2023-03-01T05:37:06;15.50;;;12.17;;
9398;SDS011;4739;49.334;8.792;2023-03-01T05:39:32;17.40;;;13.13;;
9398;SDS011;4739;49.334;8.792;2023-03-01T05:41:59;17.63;;;13.13;;
9398;SDS011;4739;49.334;8.792;2023-03-01T05:44:26;18.20;;;12.90;;
9398;SDS011;4739;49.334;8.792;2023-03-01T05:46:52;17.83;;;13.57;;
9398;SDS011;4739;49.334;8.792;2023-03-01T05:49:18;19.80;;;12.80;;
9398;SDS011;4739;49.334;8.792;2023-03-01T05:51:47;17.97;;;13.50;;
9398;SDS011;4739;49.334;8.792;2023-03-01T05:54:14;20.70;;;13.37;;
9398;SDS011;4739;49.334;8.792;2023-03-01T05:56:40;19.30;;;13.30;;
9398;SDS011;4739;49.334;8.792;2023-03-01T05:59:06;19.17;;;14.30;;
9398;SDS011;4739;49.334;8.792;2023-03-01T06:01:32;21.60;;;15.43;;
9398;SDS011;4739;49.334;8.792;2023-03-01T06:03:58;25.37;;;16.07;;
9398;SDS011;4739;49.334;8.792;2023-03-01T06:06:24;25.60;;;16.80;;
9398;SDS011;4739;49.334;8.792;2023-03-01T06:08:51;25.07;;;17.33;;
9398;SDS011;4739;49.334;8.792;2023-03-01T06:11:17;23.57;;;15.77;;
9398;SDS011;4739;49.334;8.792;2023-03-01T06:13:43;25.47;;;16.83;;
9398;SDS011;4739;49.334;8.792;2023-03-01T06:16:10;22.47;;;15.20;;
9398;SDS011;4739;49.334;8.792;2023-03-01T06:18:36;21.10;;;14.40;;
9398;SDS011;4739;49.334;8.792;2023-03-01T06:21:03;17.33;;;13.23;;
9398;SDS011;4739;49.334;8.792;2023-03-01T06:23:29;19.43;;;13.57;;
9398;SDS011;4739;49.334;8.792;2023-03-01T06:25:55;17.17;;;13.47;;
9398;SDS011;4739;49.334;8.792;2023-03-01T06:28:21;21.87;;;14.50;;
9398;SDS011;4739;49.334;8.792;2023-03-01T06:30:57;21.13;;;14.00;;
9398;SDS011;4739;49.334;8.792;2023-03-01T06:33:23;23.07;;;14.03;;
9398;SDS011;4739;49.334;8.792;2023-03-01T06:35:49;20.10;;;14.43;;
9398;SDS011;4739;49.334;8.792;2023-03-01T06:38:15;20.03;;;14.23;;
9398;SDS011;4739;49.334;8.792;2023-03-01T06:40:43;17.87;;;13.40;;
9398;SDS011;4739;49.334;8.792;2023-03-01T06:43:09;18.87;;;13.60;;
9398;SDS011;4739;49.334;8.792;2023-03-01T06:45:36;21.10;;;14.07;;
9398;SDS011;4739;49.334;8.792;2023-03-01T06:48:05;19.07;;;14.23;;
9398;SDS011;4739;49.334;8.792;2023-03-01T06:50:32;18.17;;;13.57;;
9398;SDS011;4739;49.334;8.792;2023-03-01T06:52:59;20.03;;;13.77;;
9398;SDS011;4739;49.334;8.792;2023-03-01T06:55:25;22.40;;;14.83;;
9398;SDS011;4739;49.334;8.792;2023-03-01T06:57:54;19.13;;;13.37;;
9398;SDS011;4739;49.334;8.792;2023-03-01T07:00:21;19.37;;;13.10;;
9398;SDS011;4739;49.334;8.792;2023-03-01T07:02:47;20.70;;;14.20;;
9398;SDS011;4739;49.334;8.792;2023-03-01T07:05:13;20.87;;;14.93;;
9398;SDS011;4739;49.334;8.792;2023-03-01T07:07:39;18.73;;;13.93;;
9398;SDS011;4739;49.334;8.792;2023-03-01T07:10:05;20.50;;;14.57;;
9398;SDS011;4739;49.334;8.792;2023-03-01T07:12:32;20.20;;;14.80;;
9398;SDS011;4739;49.334;8.792;2023-03-01T07:14:57;19.37;;;14.43;;
9398;SDS011;4739;49.334;8.792;2023-03-01T07:17:23;16.73;;;13.10;;
9398;SDS011;4739;49.334;8.792;2023-03-01T07:19:49;19.20;;;14.30;;
9398;SDS011;4739;49.334;8.792;2023-03-01T07:22:15;19.77;;;14.47;;
9398;SDS011;4739;49.334;8.792;2023-03-01T07:24:41;19.00;;;14.70;;
9398;SDS011;4739;49.334;8.792;2023-03-01T07:27:07;18.13;;;13.67;;
9398;SDS011;4739;49.334;8.792;2023-03-01T07:29:33;17.87;;;14.23;;
9398;SDS011;4739;49.334;8.792;2023-03-01T07:32:01;19.07;;;14.53;;
9398;SDS011;4739;49.334;8.792;2023-03-01T07:34:27;19.70;;;14.03;;
9398;SDS011;4739;49.334;8.792;2023-03-01T07:36:53;21.57;;;15.10;;
9398;SDS011;4739;49.334;8.792;2023-03-01T07:39:19;16.97;;;14.47;;
9398;SDS011;4739;49.334;8.792;2023-03-01T07:41:47;18.13;;;13.77;;
9398;SDS011;4739;49.334;8.792;2023-03-01T07:44:13;18.70;;;13.97;;
9398;SDS011;4739;49.334;8.792;2023-03-01T07:46:40;15.20;;;12.93;;
9398;SDS011;4739;49.334;8.792;2023-03-01T07:49:06;21.40;;;14.20;;
9398;SDS011;4739;49.334;8.792;2023-03-01T07:53:58;19.00;;;14.90;;
9398;SDS011;4739;49.334;8.792;2023-03-01T07:56:24;20.43;;;14.97;;
9398;SDS011;4739;49.334;8.792;2023-03-01T07:58:50;19.73;;;14.73;;
9398;SDS011;4739;49.334;8.792;2023-03-01T08:01:17;18.47;;;14.67;;
9398;SDS011;4739;49.334;8.792;2023-03-01T08:03:43;18.00;;;13.97;;
9398;SDS011;4739;49.334;8.792;2023-03-01T08:06:10;17.97;;;14.10;;
9398;SDS011;4739;49.334;8.792;2023-03-01T08:08:36;18.13;;;14.27;;
9398;SDS011;4739;49.334;8.792;2023-03-01T08:11:03;19.13;;;14.77;;
9398;SDS011;4739;49.334;8.792;2023-03-01T08:13:30;19.67;;;14.80;;
9398;SDS011;4739;49.334;8.792;2023-03-01T08:16:02;18.57;;;14.60;;
9398;SDS011;4739;49.334;8.792;2023-03-01T08:18:28;16.97;;;14.07;;
9398;SDS011;4739;49.334;8.792;2023-03-01T08:20:54;18.00;;;14.40;;
9398;SDS011;4739;49.334;8.792;2023-03-01T08:23:20;18.97;;;13.97;;
9398;SDS011;4739;49.334;8.792;2023-03-01T08:25:46;15.97;;;12.93;;
9398;SDS011;4739;49.334;8.792;2023-03-01T08:28:12;18.37;;;14.43;;
9398;SDS011;4739;49.334;8.792;2023-03-01T08:30:38;18.37;;;13.87;;
9398;SDS011;4739;49.334;8.792;2023-03-01T08:33:04;19.07;;;14.13;;
9398;SDS011;4739;49.334;8.792;2023-03-01T08:35:30;19.57;;;13.70;;
9398;SDS011;4739;49.334;8.792;2023-03-01T08:37:56;18.50;;;14.10;;
9398;SDS011;4739;49.334;8.792;2023-03-01T08:40:22;19.97;;;15.10;;
9398;SDS011;4739;49.334;8.792;2023-03-01T08:42:48;18.97;;;14.13;;
9398;SDS011;4739;49.334;8.792;2023-03-01T08:45:14;18.53;;;14.50;;
9398;SDS011;4739;49.334;8.792;2023-03-01T08:47:43;17.03;;;13.47;;
9398;SDS011;4739;49.334;8.792;2023-03-01T08:50:09;19.13;;;14.40;;
9398;SDS011;4739;49.334;8.792;2023-03-01T08:52:35;19.60;;;16.23;;
9398;SDS011;4739;49.334;8.792;2023-03-01T08:55:01;20.20;;;14.57;;
9398;SDS011;4739;49.334;8.792;2023-03-01T08:57:27;23.30;;;14.30;;
9398;SDS011;4739;49.334;8.792;2023-03-01T08:59:53;17.00;;;13.77;;
9398;SDS011;4739;49.334;8.792;2023-03-01T09:02:21;20.03;;;14.63;;
9398;SDS011;4739;49.334;8.792;2023-03-01T09:04:47;18.93;;;14.77;;
9398;SDS011;4739;49.334;8.792;2023-03-01T09:07:13;19.60;;;15.90;;
9398;SDS011;4739;49.334;8.792;2023-03-01T09:09:39;19.53;;;15.63;;
9398;SDS011;4739;49.334;8.792;2023-03-01T09:12:05;19.37;;;15.20;;
9398;SDS011;4739;49.334;8.792;2023-03-01T09:14:31;20.00;;;14.93;;
9398;SDS011;4739;49.334;8.792;2023-03-01T09:16:57;20.07;;;15.63;;
9398;SDS011;4739;49.334;8.792;2023-03-01T09:19:23;18.67;;;14.50;;
9398;SDS011;4739;49.334;8.792;2023-03-01T09:21:49;23.37;;;15.97;;
9398;SDS011;4739;49.334;8.792;2023-03-01T09:24:20;25.73;;;16.73;;
9398;SDS011;4739;49.334;8.792;2023-03-01T09:26:46;20.77;;;14.87;;
9398;SDS011;4739;49.334;8.792;2023-03-01T09:29:12;19.27;;;14.20;;
9398;SDS011;4739;49.334;8.792;2023-03-01T09:31:39;18.63;;;15.33;;
9398;SDS011;4739;49.334;8.792;2023-03-01T09:34:05;24.07;;;15.77;;
9398;SDS011;4739;49.334;8.792;2023-03-01T09:36:31;24.80;;;15.00;;
9398;SDS011;4739;49.334;8.792;2023-03-01T09:38:57;19.30;;;15.70;;
9398;SDS011;4739;49.334;8.792;2023-03-01T09:46:37;18.53;;;14.53;;
9398;SDS011;4739;49.334;8.792;2023-03-01T09:49:17;20.70;;;15.00;;
9398;SDS011;4739;49.334;8.792;2023-03-01T09:51:48;18.40;;;14.80;;
9398;SDS011;4739;49.334;8.792;2023-03-01T09:54:19;20.50;;;14.53;;
9398;SDS011;4739;49.334;8.792;2023-03-01T09:59:23;17.27;;;15.00;;
9398;SDS011;4739;49.334;8.792;2023-03-01T10:09:48;18.77;;;15.57;;
9398;SDS011;4739;49.334;8.792;2023-03-01T10:12:18;16.00;;;14.30;;
9398;SDS011;4739;49.334;8.792;2023-03-01T10:20:12;18.77;;;15.10;;
9398;SDS011;4739;49.334;8.792;2023-03-01T10:22:50;19.47;;;14.57;;
9398;SDS011;4739;49.334;8.792;2023-03-01T10:30:51;18.13;;;14.87;;
9398;SDS011;4739;49.334;8.792;2023-03-01T10:33:25;19.23;;;14.57;;
9398;SDS011;4739;49.334;8.792;2023-03-01T10:35:54;16.87;;;14.47;;
9398;SDS011;4739;49.334;8.792;2023-03-01T10:38:20;17.37;;;13.67;;
9398;SDS011;4739;49.334;8.792;2023-03-01T10:40:56;17.33;;;14.47;;
9398;SDS011;4739;49.334;8.792;2023-03-01T10:43:45;25.43;;;14.63;;
9398;SDS011;4739;49.334;8.792;2023-03-01T10:46:23;19.73;;;14.57;;
9398;SDS011;4739;49.334;8.792;2023-03-01T10:56:49;23.70;;;14.33;;
9398;SDS011;4739;49.334;8.792;2023-03-01T10:59:37;16.90;;;13.83;;
9398;SDS011;4739;49.334;8.792;2023-03-01T11:02:23;16.70;;;13.80;;
9398;SDS011;4739;49.334;8.792;2023-03-01T11:04:58;20.27;;;14.83;;
9398;SDS011;4739;49.334;8.792;2023-03-01T11:07:25;21.40;;;14.57;;
9398;SDS011;4739;49.334;8.792;2023-03-01T11:09:51;16.97;;;13.77;;
9398;SDS011;4739;49.334;8.792;2023-03-01T11:12:17;19.97;;;14.13;;
9398;SDS011;4739;49.334;8.792;2023-03-01T11:14:50;18.43;;;14.53;;
9398;SDS011;4739;49.334;8.792;2023-03-01T11:17:30;17.63;;;13.80;;
9398;SDS011;4739;49.334;8.792;2023-03-01T11:20:02;16.70;;;14.43;;
9398;SDS011;4739;49.334;8.792;2023-03-01T11:22:48;23.27;;;14.33;;
9398;SDS011;4739;49.334;8.792;2023-03-01T11:25:33;17.90;;;14.70;;
9398;SDS011;4739;49.334;8.792;2023-03-01T11:28:06;19.47;;;14.90;;
9398;SDS011;4739;49.334;8.792;2023-03-01T11:30:39;19.80;;;13.83;;
9398;SDS011;4739;49.334;8.792;2023-03-01T11:38:34;19.87;;;14.47;;
9398;SDS011;4739;49.334;8.792;2023-03-01T11:49:33;20.63;;;14.37;;
9398;SDS011;4739;49.334;8.792;2023-03-01T11:58:01;21.60;;;14.43;;
9398;SDS011;4739;49.334;8.792;2023-03-01T12:00:58;20.70;;;13.90;;
9398;SDS011;4739;49.334;8.792;2023-03-01T12:04:09;25.53;;;14.27;;
9398;SDS011;4739;49.334;8.792;2023-03-01T12:10:09;23.57;;;14.33;;
9398;SDS011;4739;49.334;8.792;2023-03-01T12:21:14;17.03;;;13.47;;
9398;SDS011;4739;49.334;8.792;2023-03-01T12:29:25;15.40;;;12.63;;
9398;SDS011;4739;49.334;8.792;2023-03-01T12:32:00;18.93;;;13.60;;
9398;SDS011;4739;49.334;8.792;2023-03-01T12:37:24;26.57;;;14.97;;
9398;SDS011;4739;49.334;8.792;2023-03-01T12:40:18;15.20;;;12.67;;
9398;SDS011;4739;49.334;8.792;2023-03-01T12:45:42;13.43;;;11.90;;
9398;SDS011;4739;49.334;8.792;2023-03-01T12:48:40;12.97;;;11.53;;
9398;SDS011;4739;49.334;8.792;2023-03-01T12:51:08;16.80;;;12.93;;
9398;SDS011;4739;49.334;8.792;2023-03-01T12:53:44;13.93;;;12.53;;
9398;SDS011;4739;49.334;8.792;2023-03-01T12:56:21;13.13;;;11.73;;
9398;SDS011;4739;49.334;8.792;2023-03-01T13:09:59;11.60;;;10.27;;
9398;SDS011;4739;49.334;8.792;2023-03-01T13:17:53;15.30;;;11.73;;
9398;SDS011;4739;49.334;8.792;2023-03-01T13:20:34;12.57;;;11.20;;
9398;SDS011;4739;49.334;8.792;2023-03-01T13:33:49;13.83;;;11.97;;
9398;SDS011;4739;49.334;8.792;2023-03-01T13:38:57;13.43;;;11.70;;
9398;SDS011;4739;49.334;8.792;2023-03-01T13:46:52;17.40;;;11.37;;
9398;SDS011;4739;49.334;8.792;2023-03-01T13:49:22;16.07;;;11.97;;
9398;SDS011;4739;49.334;8.792;2023-03-01T13:51:52;12.80;;;11.03;;
9398;SDS011;4739;49.334;8.792;2023-03-01T13:54:29;14.13;;;11.43;;
9398;SDS011;4739;49.334;8.792;2023-03-01T13:56:58;14.10;;;11.33;;
9398;SDS011;4739;49.334;8.792;2023-03-01T13:59:25;12.70;;;11.40;;
9398;SDS011;4739;49.334;8.792;2023-03-01T14:01:56;12.77;;;11.20;;
9398;SDS011;4739;49.334;8.792;2023-03-01T14:04:24;13.17;;;11.87;;
9398;SDS011;4739;49.334;8.792;2023-03-01T14:06:52;13.43;;;11.07;;
9398;SDS011;4739;49.334;8.792;2023-03-01T14:09:39;13.37;;;11.97;;
9398;SDS011;4739;49.334;8.792;2023-03-01T14:12:19;13.00;;;11.20;;
9398;SDS011;4739;49.334;8.792;2023-03-01T14:14:59;12.30;;;11.00;;
9398;SDS011;4739;49.334;8.792;2023-03-01T14:18:08;12.97;;;11.50;;
9398;SDS011;4739;49.334;8.792;2023-03-01T14:20:20;12.43;;;11.20;;
9398;SDS011;4739;49.334;8.792;2023-03-01T14:22:49;12.30;;;10.93;;
9398;SDS011;4739;49.334;8.792;2023-03-01T14:25:29;12.60;;;11.20;;
9398;SDS011;4739;49.334;8.792;2023-03-01T14:30:44;13.23;;;11.83;;
9398;SDS011;4739;49.334;8.792;2023-03-01T14:33:32;13.87;;;11.37;;
9398;SDS011;4739;49.334;8.792;2023-03-01T14:36:09;15.70;;;11.07;;
9398;SDS011;4739;49.334;8.792;2023-03-01T14:43:38;14.03;;;12.00;;
9398;SDS011;4739;49.334;8.792;2023-03-01T14:46:20;12.27;;;11.00;;
9398;SDS011;4739;49.334;8.792;2023-03-01T14:49:00;12.77;;;11.47;;
9398;SDS011;4739;49.334;8.792;2023-03-01T14:53:55;13.37;;;11.43;;
9398;SDS011;4739;49.334;8.792;2023-03-01T14:56:21;12.53;;;11.33;;
9398;SDS011;4739;49.334;8.792;2023-03-01T14:58:50;12.93;;;11.53;;
9398;SDS011;4739;49.334;8.792;2023-03-01T15:01:17;14.03;;;11.33;;
9398;SDS011;4739;49.334;8.792;2023-03-01T15:03:45;13.93;;;11.20;;
9398;SDS011;4739;49.334;8.792;2023-03-01T15:06:22;14.10;;;11.70;;
9398;SDS011;4739;49.334;8.792;2023-03-01T15:08:50;13.53;;;12.10;;
9398;SDS011;4739;49.334;8.792;2023-03-01T15:11:19;13.33;;;11.03;;
9398;SDS011;4739;49.334;8.792;2023-03-01T15:13:47;12.80;;;11.43;;
9398;SDS011;4739;49.334;8.792;2023-03-01T15:16:13;12.03;;;10.67;;
9398;SDS011;4739;49.334;8.792;2023-03-01T15:19:01;12.90;;;11.60;;
9398;SDS011;4739;49.334;8.792;2023-03-01T15:21:37;12.07;;;10.40;;
9398;SDS011;4739;49.334;8.792;2023-03-01T15:26:45;13.07;;;11.00;;
9398;SDS011;4739;49.334;8.792;2023-03-01T15:29:19;12.20;;;10.97;;
9398;SDS011;4739;49.334;8.792;2023-03-01T15:32:00;14.30;;;12.27;;
9398;SDS011;4739;49.334;8.792;2023-03-01T15:34:37;12.43;;;11.17;;
9398;SDS011;4739;49.334;8.792;2023-03-01T15:37:06;13.80;;;11.37;;
9398;SDS011;4739;49.334;8.792;2023-03-01T15:39:53;12.77;;;11.03;;
9398;SDS011;4739;49.334;8.792;2023-03-01T15:47:35;13.60;;;11.57;;
9398;SDS011;4739;49.334;8.792;2023-03-01T15:50:05;14.80;;;11.87;;
9398;SDS011;4739;49.334;8.792;2023-03-01T15:52:41;12.83;;;10.43;;
9398;SDS011;4739;49.334;8.792;2023-03-01T15:55:30;14.80;;;11.70;;
9398;SDS011;4739;49.334;8.792;2023-03-01T15:57:59;13.37;;;11.07;;
9398;SDS011;4739;49.334;8.792;2023-03-01T16:00:28;13.57;;;10.70;;
9398;SDS011;4739;49.334;8.792;2023-03-01T16:02:54;13.73;;;11.87;;
9398;SDS011;4739;49.334;8.792;2023-03-01T16:05:27;14.40;;;11.67;;
9398;SDS011;4739;49.334;8.792;2023-03-01T16:07:55;12.10;;;10.67;;
9398;SDS011;4739;49.334;8.792;2023-03-01T16:10:22;18.13;;;11.73;;
9398;SDS011;4739;49.334;8.792;2023-03-01T16:12:48;17.47;;;12.83;;
9398;SDS011;4739;49.334;8.792;2023-03-01T16:15:20;17.53;;;13.80;;
9398;SDS011;4739;49.334;8.792;2023-03-01T16:17:48;13.90;;;11.57;;
9398;SDS011;4739;49.334;8.792;2023-03-01T16:20:14;13.20;;;11.53;;
9398;SDS011;4739;49.334;8.792;2023-03-01T16:22:44;14.73;;;11.60;;
9398;SDS011;4739;49.334;8.792;2023-03-01T16:25:11;15.47;;;11.03;;
9398;SDS011;4739;49.334;8.792;2023-03-01T16:27:44;13.07;;;10.60;;
9398;SDS011;4739;49.334;8.792;2023-03-01T16:30:12;12.67;;;10.67;;
9398;SDS011;4739;49.334;8.792;2023-03-01T16:32:40;12.23;;;10.40;;
9398;SDS011;4739;49.334;8.792;2023-03-01T16:35:07;12.50;;;10.93;;
9398;SDS011;4739;49.334;8.792;2023-03-01T16:37:34;16.17;;;12.27;;
9398;SDS011;4739;49.334;8.792;2023-03-01T16:40:00;15.13;;;12.47;;
9398;SDS011;4739;49.334;8.792;2023-03-01T16:42:30;14.53;;;11.57;;
9398;SDS011;4739;49.334;8.792;2023-03-01T16:45:01;13.90;;;11.70;;
9398;SDS011;4739;49.334;8.792;2023-03-01T16:47:28;13.00;;;10.80;;
9398;SDS011;4739;49.334;8.792;2023-03-01T16:49:54;12.83;;;10.10;;
9398;SDS011;4739;49.334;8.792;2023-03-01T16:52:20;13.97;;;10.60;;
9398;SDS011;4739;49.334;8.792;2023-03-01T16:54:46;12.30;;;10.37;;
9398;SDS011;4739;49.334;8.792;2023-03-01T16:57:12;13.17;;;10.60;;
9398;SDS011;4739;49.334;8.792;2023-03-01T16:59:38;12.40;;;10.47;;
9398;SDS011;4739;49.334;8.792;2023-03-01T17:02:04;12.43;;;11.03;;
9398;SDS011;4739;49.334;8.792;2023-03-01T17:04:31;14.73;;;11.30;;
9398;SDS011;4739;49.334;8.792;2023-03-01T17:06:57;14.90;;;11.23;;
9398;SDS011;4739;49.334;8.792;2023-03-01T17:09:22;11.40;;;9.73;;
9398;SDS011;4739;49.334;8.792;2023-03-01T17:11:48;13.47;;;10.23;;
9398;SDS011;4739;49.334;8.792;2023-03-01T17:14:14;12.97;;;10.10;;
9398;SDS011;4739;49.334;8.792;2023-03-01T17:16:41;13.53;;;10.70;;
9398;SDS011;4739;49.334;8.792;2023-03-01T17:19:07;15.90;;;12.10;;
9398;SDS011;4739;49.334;8.792;2023-03-01T17:21:32;11.73;;;10.43;;
9398;SDS011;4739;49.334;8.792;2023-03-01T17:23:58;13.57;;;10.63;;
9398;SDS011;4739;49.334;8.792;2023-03-01T17:26:24;14.63;;;11.70;;
9398;SDS011;4739;49.334;8.792;2023-03-01T17:28:50;13.77;;;12.37;;